Time;durP1;ratioP1;P1;durP2;ratioP2;P2;SDS_P1;SDS_P2;PMS_P1;PMS_P2;Temp;Humidity;BMP_temperature;BMP_pressure;BME280_temperature;BME280_humidity;BME280_pressure;Samples;Min_cycle;Max_cycle;Signal;HPM_P1;HPM_P2
2020/12/28 00:00:35;;;;;;;;;58.80;40.90;;;;;1.84;63.50;101668.22;469991;116;388323;-80
2020/12/28 00:01:39;;;;;;;;;68.70;49.60;;;;;1.83;62.98;101670.86;470526;116;386368;-83
2020/12/28 00:02:43;;;;;;;;;76.60;53.00;;;;;1.78;63.00;101678.86;475469;114;387355;-81
2020/12/28 00:03:46;;;;;;;;;69.90;57.90;;;;;1.82;63.43;101675.24;475824;114;386414;-83
2020/12/28 00:04:50;;;;;;;;;76.30;56.90;;;;;1.85;62.49;101671.71;475832;114;388614;-81
2020/12/28 00:05:54;;;;;;;;;95.00;69.20;;;;;1.86;62.50;101684.78;476203;114;389731;-79
2020/12/28 00:06:58;;;;;;;;;92.90;66.60;;;;;1.82;62.91;101679.66;475838;114;390170;-79
2020/12/28 00:08:01;;;;;;;;;97.91;70.64;;;;;1.82;62.46;101682.27;476079;114;395948;-80
2020/12/28 00:09:06;;;;;;;;;99.10;71.60;;;;;1.82;62.46;101682.27;476163;114;391198;-80
2020/12/28 00:10:11;;;;;;;;;107.80;78.90;;;;;1.87;61.95;101677.77;475866;114;392510;-81
2020/12/28 00:11:18;;;;;;;;;107.90;77.80;;;;;1.83;61.74;101682.22;473886;114;391824;-81
2020/12/28 00:12:22;;;;;;;;;109.50;74.90;;;;;1.83;61.87;101679.60;474095;115;392251;-82
2020/12/28 00:13:25;;;;;;;;;97.40;71.60;;;;;1.90;61.88;101677.70;474435;115;390186;-82
2020/12/28 00:14:29;;;;;;;;;107.80;79.40;;;;;1.95;62.20;101675.83;473801;115;392333;-83
2020/12/28 00:15:33;;;;;;;;;99.50;73.90;;;;;1.95;62.20;101675.83;474448;115;389022;-82
2020/12/28 00:16:39;;;;;;;;;115.50;90.20;;;;;2.00;61.99;101668.73;473600;115;392612;-82
2020/12/28 00:17:45;;;;;;;;;112.90;86.70;;;;;2.00;61.99;101668.73;474292;115;393552;-81
2020/12/28 00:18:49;;;;;;;;;125.30;93.50;;;;;2.03;61.87;101668.66;473539;115;394586;-82
2020/12/28 00:19:52;;;;;;;;;120.40;94.80;;;;;2.03;61.87;101668.66;474324;115;394223;-81
2020/12/28 00:20:56;;;;;;;;;116.00;83.60;;;;;2.08;61.83;101664.15;474320;115;392216;-79
2020/12/28 00:22:00;;;;;;;;;120.20;85.20;;;;;2.08;61.83;101664.15;474272;115;393163;-80
2020/12/28 00:23:04;;;;;;;;;121.30;90.70;;;;;2.05;62.16;101659.84;474262;115;393531;-81
2020/12/28 00:24:08;;;;;;;;;103.90;74.10;;;;;2.05;62.16;101659.84;474026;115;391277;-81
2020/12/28 00:25:11;;;;;;;;;103.50;77.40;;;;;2.05;62.12;101658.98;474361;115;392573;-82
2020/12/28 00:26:16;;;;;;;;;103.80;73.00;;;;;2.06;62.24;101652.84;473724;115;392632;-81
2020/12/28 00:27:20;;;;;;;;;113.20;82.80;;;;;2.08;62.59;101658.90;474353;115;392935;-81
2020/12/28 00:28:23;;;;;;;;;100.30;70.40;;;;;2.05;62.45;101654.59;474450;115;390316;-81
2020/12/28 00:29:27;;;;;;;;;102.80;73.30;;;;;2.05;62.45;101654.59;474362;115;391460;-81
2020/12/28 00:30:32;;;;;;;;;104.00;75.20;;;;;2.06;62.83;101663.34;474218;115;391179;-80
2020/12/28 00:31:35;;;;;;;;;104.60;76.60;;;;;2.06;62.83;101663.34;474506;115;390486;-81
2020/12/28 00:32:39;;;;;;;;;99.60;72.30;;;;;2.12;61.96;101661.43;474588;115;389787;-80
2020/12/28 00:33:44;;;;;;;;;100.00;73.20;;;;;2.12;61.96;101661.43;474217;115;390307;-83
2020/12/28 00:34:47;;;;;;;;;98.00;70.90;;;;;2.19;62.33;101658.66;474361;115;390657;-82
2020/12/28 00:35:51;;;;;;;;;99.70;72.30;;;;;2.22;62.56;101669.08;474577;115;391012;-79
2020/12/28 00:36:55;;;;;;;;;101.60;71.30;;;;;2.26;61.99;101660.23;473996;115;390685;-80
2020/12/28 00:37:59;;;;;;;;;98.00;68.40;;;;;2.28;61.38;101648.80;474438;115;391999;-81
2020/12/28 00:39:03;;;;;;;;;94.00;69.20;;;;;2.28;61.38;101648.80;474391;115;390518;-80
2020/12/28 00:40:08;;;;;;;;;91.20;68.40;;;;;2.24;61.57;101656.77;473732;115;390244;-80
2020/12/28 00:41:12;;;;;;;;;102.40;74.40;;;;;2.22;61.42;101653.33;474203;115;392394;-81
2020/12/28 00:42:16;;;;;;;;;98.30;68.10;;;;;2.22;61.42;101653.33;474292;115;391335;-81
2020/12/28 00:43:20;;;;;;;;;90.90;64.60;;;;;2.23;61.67;101660.31;474687;115;391273;-83
2020/12/28 00:44:24;;;;;;;;;109.80;83.60;;;;;2.24;61.27;101656.77;474677;115;392749;-82
2020/12/28 00:45:28;;;;;;;;;118.00;91.10;;;;;2.24;61.27;101656.77;473977;115;393394;-81
2020/12/28 00:46:33;;;;;;;;;104.00;82.20;;;;;2.23;61.22;101653.31;474069;115;390703;-82
2020/12/28 00:47:37;;;;;;;;;123.80;90.70;;;;;2.23;61.11;101650.69;473912;115;394680;-81
2020/12/28 00:48:42;;;;;;;;;124.90;90.60;;;;;2.22;61.42;101651.58;474042;115;393276;-81
2020/12/28 00:49:45;;;;;;;;;124.40;85.40;;;;;2.16;61.35;101648.23;474525;115;393329;-81
2020/12/28 00:50:49;;;;;;;;;116.20;84.90;;;;;2.11;60.71;101651.82;474245;115;392767;-82
2020/12/28 00:51:53;;;;;;;;;122.80;92.00;;;;;2.17;61.09;101652.59;474491;115;394004;-82
2020/12/28 00:52:57;;;;;;;;;135.60;107.60;;;;;2.18;60.92;101651.67;474431;115;394052;-81
2020/12/28 00:54:03;;;;;;;;;146.50;99.90;;;;;2.15;60.67;101657.86;474211;115;393705;-81
2020/12/28 00:55:07;;;;;;;;;131.90;94.40;;;;;2.15;60.67;101657.86;474413;115;393862;-80
2020/12/28 00:56:14;;;;;;;;;103.90;70.10;;;;;2.19;61.48;101648.16;466160;117;393147;-80
2020/12/28 00:57:18;;;;;;;;;108.50;80.10;;;;;2.23;61.40;101642.81;466401;117;392852;-78
2020/12/28 00:58:23;;;;;;;;;104.80;75.60;;;;;2.24;60.78;101644.52;473646;114;391137;-79
2020/12/28 00:59:29;;;;;;;;;66.30;35.20;;;;;2.24;60.78;101644.52;473304;115;385221;-78
2020/12/28 01:00:33;;;;;;;;;86.20;65.20;;;;;2.26;60.25;101645.36;474403;115;390336;-77
2020/12/28 01:01:39;;;;;;;;;105.20;76.60;;;;;2.22;60.42;101641.08;474045;115;392330;-79
2020/12/28 01:02:43;;;;;;;;;110.90;85.30;;;;;2.22;60.42;101641.08;466086;117;393819;-78
2020/12/28 01:03:49;;;;;;;;;111.00;81.70;;;;;2.14;60.20;101628.12;466023;117;393886;-77
2020/12/28 01:05:00;;;;;;;;;100.70;71.50;;;;;2.14;60.20;101628.12;467185;115;389690;-78
2020/12/28 01:06:06;;;;;;;;;110.70;84.30;;;;;2.16;60.83;101632.48;474069;115;393701;-80
2020/12/28 01:07:11;;;;;;;;;110.80;81.10;;;;;2.10;60.35;101630.88;466799;117;392657;-78
2020/12/28 01:08:31;;;;;;;;;110.80;85.50;;;;;1.94;59.89;101634.77;468813;115;393780;-79
2020/12/28 01:09:35;;;;;;;;;102.70;77.30;;;;;1.94;59.89;101634.77;474326;115;391031;-79
2020/12/28 01:10:42;;;;;;;;;111.30;80.50;;;;;1.87;60.71;101641.05;474065;115;393378;-77
2020/12/28 01:11:46;;;;;;;;;106.20;76.00;;;;;1.84;60.88;101639.37;475056;114;391497;-78
2020/12/28 01:12:50;;;;;;;;;115.40;81.70;;;;;1.81;60.80;101636.82;475600;114;392768;-78
2020/12/28 01:13:56;;;;;;;;;105.80;81.10;;;;;1.81;61.18;101631.57;475420;114;391474;-77
2020/12/28 01:14:59;;;;;;;;;96.40;64.60;;;;;1.88;61.04;101634.92;475733;114;390749;-78
2020/12/28 01:16:11;;;;;;;;;100.80;75.10;;;;;1.91;60.76;101627.84;474671;114;391381;-80
2020/12/28 01:17:16;;;;;;;;;102.90;72.50;;;;;1.91;60.76;101627.84;475501;114;391601;-79
2020/12/28 01:18:24;;;;;;;;;99.80;72.20;;;;;1.92;60.53;101613.80;474527;114;391037;-79
2020/12/28 01:19:33;;;;;;;;;97.50;69.40;;;;;1.91;60.84;101608.61;474795;114;389357;-79
2020/12/28 01:20:39;;;;;;;;;89.00;64.30;;;;;1.91;60.84;101608.61;475460;114;390236;-77
2020/12/28 01:21:44;;;;;;;;;83.80;62.20;;;;;1.76;61.13;101607.19;468820;116;388099;-78
2020/12/28 01:22:48;;;;;;;;;91.80;67.30;;;;;1.76;61.13;101607.19;461303;118;389393;-80
2020/12/28 01:23:52;;;;;;;;;90.10;66.10;;;;;1.72;61.23;101602.94;468154;116;390769;-81
2020/12/28 01:24:56;;;;;;;;;78.20;58.00;;;;;1.77;60.77;101605.44;476476;114;388233;-78
2020/12/28 01:26:01;;;;;;;;;76.70;56.40;;;;;1.77;60.77;101605.44;476441;114;387890;-80
2020/12/28 01:27:06;;;;;;;;;68.10;50.00;;;;;1.78;60.11;101605.42;476496;114;388884;-79
2020/12/28 01:28:10;;;;;;;;;51.80;39.90;;;;;1.73;60.80;101601.16;476768;114;385495;-81
2020/12/28 01:29:14;;;;;;;;;61.80;47.70;;;;;1.71;60.93;101603.83;476838;114;384516;-80
2020/12/28 01:30:21;;;;;;;;;60.70;46.00;;;;;1.71;60.93;101603.83;475520;114;387270;-79
2020/12/28 01:31:25;;;;;;;;;44.50;38.10;;;;;1.71;60.75;101614.31;476709;114;386009;-78
2020/12/28 01:32:41;;;;;;;;;41.30;34.90;;;;;1.73;61.17;101611.64;476121;114;386069;-78
2020/12/28 01:33:47;;;;;;;;;35.30;27.10;;;;;1.73;61.17;101611.64;473579;114;383599;-77
2020/12/28 01:34:51;;;;;;;;;37.80;29.60;;;;;1.77;61.69;101603.68;476413;114;385781;-78
2020/12/28 01:35:55;;;;;;;;;46.80;35.70;;;;;1.75;61.10;101600.25;476712;114;386979;-79
2020/12/28 01:36:59;;;;;;;;;34.90;26.10;;;;;1.75;61.10;101600.25;476357;114;383372;-81
2020/12/28 01:38:05;;;;;;;;;43.90;32.40;;;;;1.74;61.54;101595.02;474411;114;383479;-79
2020/12/28 01:39:09;;;;;;;;;44.80;33.30;;;;;1.76;61.12;101595.84;476666;114;386749;-79
2020/12/28 01:40:15;;;;;;;;;35.60;29.40;;;;;1.76;60.85;101580.09;476185;114;385888;-78
2020/12/28 01:41:19;;;;;;;;;35.80;28.70;;;;;1.79;61.40;101585.27;476221;114;385604;-80
2020/12/28 01:42:24;;;;;;;;;34.80;29.30;;;;;1.81;61.65;101589.61;476195;114;384343;-79
2020/12/28 01:43:30;;;;;;;;;29.80;24.20;;;;;1.84;61.76;101576.41;476196;114;382478;-77
2020/12/28 01:44:34;;;;;;;;;33.70;29.40;;;;;1.88;60.81;101578.05;476497;114;385277;-78
2020/12/28 01:45:40;;;;;;;;;33.50;28.20;;;;;1.90;61.36;101584.14;475177;114;383864;-79
2020/12/28 01:46:46;;;;;;;;;35.00;24.00;;;;;1.89;61.22;101577.16;467678;116;387310;-78
2020/12/28 01:47:51;;;;;;;;;25.00;20.80;;;;;1.89;61.22;101577.16;468554;116;381083;-79
2020/12/28 01:48:55;;;;;;;;;50.20;34.20;;;;;1.82;60.57;101575.57;476672;114;387219;-79
2020/12/28 01:49:59;;;;;;;;;49.00;38.30;;;;;1.83;60.24;101576.44;476695;114;387363;-79
2020/12/28 01:51:03;;;;;;;;;32.00;28.00;;;;;1.78;60.89;101568.70;476834;114;383227;-79
2020/12/28 01:52:07;;;;;;;;;28.30;24.40;;;;;1.83;60.58;101577.30;476746;114;382989;-79
2020/12/28 01:53:11;;;;;;;;;30.00;24.60;;;;;1.86;60.10;101569.36;476481;114;382846;-78
2020/12/28 01:54:15;;;;;;;;;26.30;21.70;;;;;1.81;61.53;101555.51;476511;114;384813;-79
2020/12/28 01:55:21;;;;;;;;;23.20;18.90;;;;;1.76;61.54;101549.49;476146;114;387530;-79
2020/12/28 01:56:29;;;;;;;;;26.10;20.00;;;;;1.75;61.35;101552.17;475619;114;382943;-79
2020/12/28 01:57:32;;;;;;;;;17.20;15.40;;;;;1.78;61.33;101547.72;476849;114;381124;-80
2020/12/28 01:58:38;;;;;;;;;20.50;17.60;;;;;1.78;60.31;101550.34;476144;114;382074;-79
2020/12/28 01:59:43;;;;;;;;;14.20;10.60;;;;;1.78;60.31;101550.34;476400;114;378783;-80
2020/12/28 02:00:49;;;;;;;;;20.70;17.10;;;;;1.75;60.78;101552.17;476192;114;382300;-79
2020/12/28 02:01:54;;;;;;;;;18.80;15.60;;;;;1.71;60.91;101553.13;476862;114;384058;-80
2020/12/28 02:02:59;;;;;;;;;12.50;10.30;;;;;1.71;60.91;101553.13;476448;114;375673;-79
2020/12/28 02:04:11;;;;;;;;;20.90;15.40;;;;;1.63;61.07;101555.09;475430;114;382971;-79
2020/12/28 02:05:17;;;;;;;;;18.60;16.70;;;;;1.63;60.67;101553.30;475975;114;382348;-79
2020/12/28 02:06:22;;;;;;;;;17.60;15.90;;;;;1.56;62.04;101546.50;467770;116;380016;-79
2020/12/28 02:07:26;;;;;;;;;20.40;17.50;;;;;1.54;62.07;101543.04;468822;114;385268;-78
2020/12/28 02:08:30;;;;;;;;;20.80;16.90;;;;;1.57;61.00;101545.59;476797;114;388379;-78
2020/12/28 02:09:35;;;;;;;;;19.90;16.60;;;;;1.56;61.72;101543.89;476560;114;382348;-78
2020/12/28 02:10:40;;;;;;;;;19.40;13.50;;;;;1.56;61.72;101543.89;476347;114;380786;-78
2020/12/28 02:11:44;;;;;;;;;20.50;14.60;;;;;1.64;60.80;101533.20;476792;114;385457;-79
2020/12/28 02:12:48;;;;;;;;;22.30;17.20;;;;;1.64;60.80;101533.20;476661;114;381393;-79
2020/12/28 02:13:52;;;;;;;;;18.60;16.40;;;;;1.62;60.60;101528.00;476825;114;378276;-81
2020/12/28 02:15:14;;;;;;;;;11.70;10.00;;;;;1.65;60.95;101530.55;476523;114;378820;-80
2020/12/28 02:16:23;;;;;;;;;15.10;12.60;;;;;1.60;61.10;101527.16;473847;114;378279;-81
2020/12/28 02:17:29;;;;;;;;;18.20;14.00;;;;;1.60;61.10;101527.16;475965;114;380113;-80
2020/12/28 02:18:35;;;;;;;;;18.90;18.20;;;;;1.58;61.55;101523.72;475000;114;382609;-81
2020/12/28 02:19:40;;;;;;;;;22.00;21.40;;;;;1.58;61.55;101523.72;475829;114;383589;-80
2020/12/28 02:20:45;;;;;;;;;17.10;13.00;;;;;1.56;61.36;101517.67;476643;114;383682;-81
2020/12/28 02:21:49;;;;;;;;;25.80;19.30;;;;;1.54;61.48;101525.55;467650;116;383306;-81
2020/12/28 02:22:55;;;;;;;;;23.50;18.40;;;;;1.54;61.48;101525.55;468275;116;389302;-80
2020/12/28 02:23:59;;;;;;;;;24.60;21.20;;;;;1.55;61.10;101518.55;476836;114;384027;-82
2020/12/28 02:25:03;;;;;;;;;19.10;13.20;;;;;1.61;61.29;101528.89;476903;114;379626;-83
2020/12/28 02:26:07;;;;;;;;;20.30;16.40;;;;;1.63;60.63;101521.84;477118;114;381030;-84
2020/12/28 02:27:11;;;;;;;;;23.40;16.50;;;;;1.66;60.87;101524.38;476744;114;382082;-84
2020/12/28 02:28:16;;;;;;;;;24.50;20.10;;;;;1.70;60.85;101526.05;477241;114;382010;-83
2020/12/28 02:29:20;;;;;;;;;21.60;18.30;;;;;1.72;60.83;101521.64;477035;114;380609;-82
2020/12/28 02:30:25;;;;;;;;;28.10;22.00;;;;;1.75;60.72;101520.70;476618;114;383472;-82
2020/12/28 02:31:48;;;;;;;;;19.00;13.70;;;;;1.77;60.98;101517.13;438234;124;379091;-81
2020/12/28 02:32:54;;;;;;;;;26.50;19.70;;;;;1.77;60.98;101517.13;438078;125;383932;-81
2020/12/28 02:33:59;;;;;;;;;25.00;20.90;;;;;1.83;61.11;101513.48;437602;125;383201;-81
2020/12/28 02:35:05;;;;;;;;;4.90;1.70;;;;;1.81;61.20;101516.17;438637;125;371524;-82
2020/12/28 02:36:11;;;;;;;;;24.60;20.00;;;;;1.80;60.98;101516.19;438029;125;382650;-80
2020/12/28 02:37:15;;;;;;;;;22.20;17.40;;;;;1.82;60.06;101510.00;438597;125;383076;-82
2020/12/28 02:38:27;;;;;;;;;23.00;20.50;;;;;1.82;60.06;101510.00;475326;114;382441;-82
2020/12/28 02:39:31;;;;;;;;;15.10;13.10;;;;;1.76;60.15;101518.02;476889;114;379325;-81
2020/12/28 02:40:35;;;;;;;;;20.50;16.60;;;;;1.74;60.05;101511.10;476554;114;383411;-82
2020/12/28 02:41:39;;;;;;;;;23.60;19.40;;;;;1.70;60.91;101512.93;476612;114;382897;-81
2020/12/28 02:43:02;;;;;;;;;21.20;16.60;;;;;1.74;60.65;101514.59;476157;114;390407;-82
2020/12/28 02:44:24;;;;;;;;;24.20;19.40;;;;;1.65;61.08;101514.81;476248;114;382614;-83
2020/12/28 02:45:46;;;;;;;;;25.80;23.00;;;;;1.64;61.20;101504.35;476503;114;384254;-81
2020/12/28 02:47:09;;;;;;;;;19.70;19.70;;;;;1.60;61.46;101508.81;476279;114;383101;-82
2020/12/28 02:48:31;;;;;;;;;19.30;17.30;;;;;1.60;61.46;101508.81;476465;114;382286;-84
2020/12/28 02:49:53;;;;;;;;;19.00;18.40;;;;;1.50;62.01;101504.71;476351;114;381564;-84
2020/12/28 02:51:15;;;;;;;;;14.80;12.70;;;;;1.54;61.27;101507.20;476366;114;379501;-83
2020/12/28 02:52:37;;;;;;;;;17.40;14.10;;;;;1.54;61.27;101507.20;476330;114;379235;-83
2020/12/28 02:53:59;;;;;;;;;16.00;12.70;;;;;1.57;61.05;101516.75;476383;114;378192;-81
2020/12/28 02:55:20;;;;;;;;;14.00;14.00;;;;;1.61;61.27;101502.67;476668;114;376533;-80
2020/12/28 02:56:44;;;;;;;;;12.00;11.40;;;;;1.61;61.27;101502.67;476370;114;376620;-82
2020/12/28 02:58:06;;;;;;;;;21.50;17.00;;;;;1.58;61.61;101506.23;476329;114;383260;-81
2020/12/28 02:59:28;;;;;;;;;13.90;13.40;;;;;1.58;60.90;101500.12;476395;114;377748;-84
2020/12/28 03:00:51;;;;;;;;;17.70;12.60;;;;;1.56;60.70;101504.56;476397;114;379210;-83
2020/12/28 03:02:13;;;;;;;;;14.90;11.00;;;;;1.63;60.33;101508.73;476446;114;377671;-82
2020/12/28 03:03:35;;;;;;;;;16.80;14.70;;;;;1.63;60.33;101508.73;476571;114;379847;-82
2020/12/28 03:04:57;;;;;;;;;13.80;12.50;;;;;1.63;60.83;101507.89;476430;114;378776;-84
2020/12/28 03:06:20;;;;;;;;;40.70;30.50;;;;;1.63;60.76;101505.27;476389;114;387673;-83
2020/12/28 03:07:42;;;;;;;;;50.10;40.30;;;;;1.63;60.76;101505.27;476702;114;385288;-82
2020/12/28 03:09:04;;;;;;;;;19.50;15.60;;;;;1.64;60.27;101497.35;476633;114;384120;-81
2020/12/28 03:10:28;;;;;;;;;15.20;13.50;;;;;1.62;59.91;101496.55;476424;114;379064;-83
2020/12/28 03:11:50;;;;;;;;;16.80;14.10;;;;;1.63;60.28;101505.27;476742;114;379588;-82
2020/12/28 03:13:12;;;;;;;;;14.80;13.80;;;;;1.63;60.11;101503.48;476678;114;378789;-87
2020/12/28 03:14:34;;;;;;;;;21.80;14.30;;;;;1.62;60.18;101496.55;476347;114;379560;-82
2020/12/28 03:15:57;;;;;;;;;16.00;13.40;;;;;1.64;61.00;101492.11;476333;114;378617;-82
2020/12/28 03:17:19;;;;;;;;;12.90;11.60;;;;;1.63;60.93;101493.00;476367;114;378642;-82
2020/12/28 03:18:40;;;;;;;;;15.30;10.10;;;;;1.66;60.30;101498.16;476413;114;379587;-83
2020/12/28 03:20:03;;;;;;;;;14.10;11.50;;;;;1.66;60.32;101492.09;476406;114;377666;-83
2020/12/28 03:21:25;;;;;;;;;17.70;13.80;;;;;1.67;60.24;101483.30;476340;114;379921;-83
2020/12/28 03:22:47;;;;;;;;;18.30;15.10;;;;;1.71;59.98;101491.06;476316;114;382083;-82
2020/12/28 03:24:10;;;;;;;;;13.90;11.20;;;;;1.71;59.98;101491.06;476417;114;378802;-82
2020/12/28 03:25:32;;;;;;;;;16.40;13.50;;;;;1.75;60.07;101494.48;476332;114;380191;-83
2020/12/28 03:26:54;;;;;;;;;16.00;11.50;;;;;1.74;60.11;101488.36;476360;114;378902;-81
2020/12/28 03:28:15;;;;;;;;;18.80;13.60;;;;;1.69;60.62;101490.25;476361;114;379046;-77
2020/12/28 03:29:38;;;;;;;;;13.30;10.70;;;;;1.66;59.79;101485.05;476464;114;377873;-75
2020/12/28 03:31:00;;;;;;;;;15.90;13.70;;;;;1.66;59.80;101479.81;476358;114;379379;-76
2020/12/28 03:32:24;;;;;;;;;13.60;12.30;;;;;1.66;59.80;101479.81;450643;120;378456;-75
2020/12/28 03:33:46;;;;;;;;;19.10;14.10;;;;;1.63;60.18;101474.64;435544;125;379469;-74
2020/12/28 03:35:08;;;;;;;;;14.20;12.30;;;;;1.66;60.22;101469.33;451576;121;377521;-74
2020/12/28 03:36:32;;;;;;;;;12.50;11.90;;;;;1.62;60.81;101474.70;451460;121;377779;-74
2020/12/28 03:38:54;;;;;;;;;28.00;22.10;;;;;1.69;59.82;101478.90;489566;108;409838;-74
2020/12/28 03:40:18;;;;;;;;;27.00;24.40;;;;;1.69;59.82;101478.90;483788;111;383650;-76
2020/12/28 03:41:40;;;;;;;;;23.40;18.80;;;;;1.74;60.07;101483.12;479687;113;383460;-74
2020/12/28 03:43:02;;;;;;;;;20.20;14.90;;;;;1.76;59.30;101475.20;479963;113;380159;-75
2020/12/28 03:44:24;;;;;;;;;15.40;12.10;;;;;1.76;59.30;101475.20;479842;113;377743;-76
2020/12/28 03:45:46;;;;;;;;;14.00;11.00;;;;;1.77;59.88;101469.06;479852;113;378986;-77
2020/12/28 03:47:08;;;;;;;;;10.70;9.70;;;;;1.81;59.69;101470.72;479794;113;377395;-77
2020/12/28 03:48:30;;;;;;;;;10.20;10.20;;;;;1.75;59.57;101476.98;479784;113;377759;-78
2020/12/28 03:49:52;;;;;;;;;15.90;14.50;;;;;1.75;59.57;101476.98;479850;113;378818;-77
2020/12/28 03:51:15;;;;;;;;;16.70;13.00;;;;;1.70;59.11;101465.73;479748;113;380344;-74
2020/12/28 03:52:39;;;;;;;;;16.30;11.90;;;;;1.70;59.11;101465.73;479751;113;384284;-76
2020/12/28 03:54:00;;;;;;;;;15.90;12.90;;;;;1.74;59.61;101469.14;479718;113;386012;-76
2020/12/28 03:55:23;;;;;;;;;16.10;12.30;;;;;1.69;59.54;101474.52;479735;113;379138;-77
2020/12/28 03:56:47;;;;;;;;;16.10;11.80;;;;;1.67;59.50;101473.67;479704;113;377280;-73
2020/12/28 03:58:10;;;;;;;;;12.00;9.11;;;;;1.67;59.50;101473.67;479881;113;377910;-76
2020/12/28 03:59:35;;;;;;;;;15.10;12.70;;;;;1.71;59.25;101488.45;479775;113;377740;-75
2020/12/28 04:00:57;;;;;;;;;12.80;11.00;;;;;1.68;58.92;101478.03;479804;113;378875;-77
2020/12/28 04:02:19;;;;;;;;;11.70;11.10;;;;;1.68;58.92;101478.03;472641;115;378181;-78
2020/12/28 04:03:41;;;;;;;;;17.10;13.20;;;;;1.75;59.23;101484.85;477517;113;378954;-76
2020/12/28 04:05:03;;;;;;;;;11.00;9.10;;;;;1.75;59.23;101484.85;479868;113;376777;-75
2020/12/28 04:06:26;;;;;;;;;16.50;14.30;;;;;1.67;59.38;101481.55;480001;113;377747;-78
2020/12/28 04:07:48;;;;;;;;;12.20;11.00;;;;;1.63;59.46;101482.51;479755;113;377767;-77
2020/12/28 04:09:08;;;;;;;;;18.30;14.30;;;;;1.63;59.46;101482.51;457572;119;380027;-77
2020/12/28 04:10:31;;;;;;;;;16.10;14.70;;;;;1.65;59.64;101472.00;457586;118;379508;-79
2020/12/28 04:11:37;;;;;;;;;13.10;10.80;;;;;1.56;60.49;101473.10;456521;113;377969;-79
2020/12/28 04:12:42;;;;;;;;;17.90;14.50;;;;;1.64;59.68;101471.13;478938;113;379322;-77
2020/12/28 04:13:46;;;;;;;;;16.90;14.30;;;;;1.67;60.03;101471.05;480270;113;381119;-78
2020/12/28 04:14:50;;;;;;;;;13.60;11.10;;;;;1.70;59.84;101476.22;480329;113;376526;-76
2020/12/28 04:15:54;;;;;;;;;11.80;7.20;;;;;1.70;59.84;101476.22;480343;113;376525;-76
2020/12/28 04:16:58;;;;;;;;;19.80;16.80;;;;;1.68;60.01;101470.16;480244;113;381602;-77
2020/12/28 04:18:02;;;;;;;;;20.30;15.30;;;;;1.75;59.51;101483.98;480181;113;379483;-78
2020/12/28 04:19:06;;;;;;;;;24.00;14.80;;;;;1.75;59.51;101483.98;479970;113;380302;-79
2020/12/28 04:20:11;;;;;;;;;15.70;12.80;;;;;1.75;59.07;101482.23;480035;113;380279;-77
2020/12/28 04:21:15;;;;;;;;;27.50;22.60;;;;;1.71;59.09;101475.33;480210;113;389651;-76
2020/12/28 04:22:19;;;;;;;;;44.70;35.90;;;;;1.71;59.09;101475.33;479975;113;393484;-76
2020/12/28 04:23:23;;;;;;;;;25.40;20.70;;;;;1.74;59.38;101482.25;480165;113;383118;-77
2020/12/28 04:24:27;;;;;;;;;47.10;39.60;;;;;1.75;59.39;101482.23;480021;113;393176;-77
2020/12/28 04:25:31;;;;;;;;;38.30;28.80;;;;;1.78;58.88;101483.91;480101;113;384073;-77
2020/12/28 04:26:35;;;;;;;;;27.40;24.10;;;;;1.78;58.88;101483.91;479829;113;382907;-75
2020/12/28 04:27:41;;;;;;;;;25.80;22.40;;;;;1.82;59.62;101480.31;479190;113;382443;-75
2020/12/28 04:28:46;;;;;;;;;39.10;29.50;;;;;1.85;59.63;101486.31;479899;113;384096;-77
2020/12/28 04:29:55;;;;;;;;;40.10;32.00;;;;;1.88;59.15;101474.91;480076;113;386000;-79
2020/12/28 04:30:59;;;;;;;;;49.80;37.00;;;;;1.91;59.07;101486.19;479535;113;387509;-78
2020/12/28 04:32:02;;;;;;;;;46.30;34.50;;;;;1.91;59.07;101486.19;480096;113;388599;-79
2020/12/28 04:33:06;;;;;;;;;58.00;39.80;;;;;1.91;58.83;101486.19;480001;113;393880;-80
2020/12/28 04:34:12;;;;;;;;;72.70;54.00;;;;;1.87;58.76;101487.16;480036;113;385678;-78
2020/12/28 04:35:16;;;;;;;;;77.80;57.10;;;;;1.87;58.76;101487.16;479785;113;387899;-79
2020/12/28 04:36:21;;;;;;;;;74.10;56.30;;;;;1.82;59.36;101481.15;479547;113;387117;-78
2020/12/28 04:37:25;;;;;;;;;60.50;43.70;;;;;1.79;59.77;101485.61;480073;113;388186;-80
2020/12/28 04:38:29;;;;;;;;;64.10;46.80;;;;;1.81;59.53;101474.20;479973;113;384986;-80
2020/12/28 04:39:33;;;;;;;;;78.10;54.60;;;;;1.82;58.47;101468.03;478108;114;386846;-80
2020/12/28 04:40:38;;;;;;;;;75.30;56.30;;;;;1.78;59.31;101476.91;477777;114;387246;-79
2020/12/28 04:41:44;;;;;;;;;78.90;57.40;;;;;1.78;59.31;101476.91;477504;114;395705;-78
2020/12/28 04:42:48;;;;;;;;;71.10;51.00;;;;;1.80;59.35;101476.84;470365;116;387232;-78
2020/12/28 04:43:52;;;;;;;;;68.00;49.30;;;;;1.77;58.34;101483.04;471133;113;385216;-77
2020/12/28 04:44:56;;;;;;;;;55.60;40.30;;;;;1.77;58.74;101472.55;478050;114;391093;-78
2020/12/28 04:46:03;;;;;;;;;69.50;52.00;;;;;1.77;58.73;101469.92;477767;114;394171;-77
2020/12/28 04:47:12;;;;;;;;;49.00;42.40;;;;;1.77;58.73;101469.92;477132;113;386036;-79
2020/12/28 04:48:18;;;;;;;;;35.20;32.30;;;;;1.79;58.50;101468.11;477822;114;385921;-76
2020/12/28 04:49:24;;;;;;;;;48.80;36.80;;;;;1.83;59.15;101475.02;479548;113;387372;-77
2020/12/28 04:50:29;;;;;;;;;61.10;42.60;;;;;1.86;58.92;101471.44;479659;113;389013;-79
2020/12/28 04:51:37;;;;;;;;;47.20;36.20;;;;;1.85;58.95;101465.33;479669;113;386670;-76
2020/12/28 04:52:41;;;;;;;;;50.40;40.20;;;;;1.85;58.95;101465.33;479431;113;393131;-75
2020/12/28 04:53:45;;;;;;;;;45.10;37.70;;;;;1.83;58.96;101476.77;477953;114;387465;-75
2020/12/28 04:54:49;;;;;;;;;46.40;36.80;;;;;1.85;59.85;101482.86;477744;114;387068;-78
2020/12/28 04:55:53;;;;;;;;;29.80;24.70;;;;;1.82;59.49;101481.15;478065;114;390473;-77
2020/12/28 04:57:00;;;;;;;;;41.60;35.10;;;;;1.82;59.72;101480.31;477738;114;385367;-76
2020/12/28 04:58:07;;;;;;;;;38.10;31.60;;;;;1.82;59.72;101480.31;480029;113;385559;-73
2020/12/28 04:59:11;;;;;;;;;41.70;31.30;;;;;1.77;59.30;101483.04;479766;113;384785;-74
2020/12/28 05:00:15;;;;;;;;;27.10;23.80;;;;;1.78;59.80;101471.66;478067;114;386422;-75
2020/12/28 05:01:22;;;;;;;;;24.30;18.60;;;;;1.81;59.72;101482.07;480136;113;381309;-77
2020/12/28 05:02:28;;;;;;;;;25.20;20.40;;;;;1.81;59.72;101482.07;479256;113;382362;-77
2020/12/28 05:03:34;;;;;;;;;28.60;19.70;;;;;1.89;59.81;101480.09;479548;113;383740;-76
2020/12/28 05:04:41;;;;;;;;;27.00;21.70;;;;;1.90;58.85;101471.34;479516;113;383377;-79
2020/12/28 05:05:47;;;;;;;;;18.70;13.60;;;;;1.91;58.95;101465.20;479623;113;380029;-79
2020/12/28 05:06:58;;;;;;;;;25.60;19.70;;;;;1.91;58.95;101465.20;477615;113;383327;-80
2020/12/28 05:08:05;;;;;;;;;25.10;20.40;;;;;1.93;59.08;101466.01;479587;113;383824;-80
2020/12/28 05:09:10;;;;;;;;;31.30;22.40;;;;;1.88;58.47;101462.62;477622;114;383543;-81
2020/12/28 05:10:23;;;;;;;;;26.50;22.50;;;;;1.86;59.14;101463.58;477860;114;383480;-80
2020/12/28 05:11:27;;;;;;;;;23.80;20.00;;;;;1.86;59.14;101463.58;477627;114;384299;-78
2020/12/28 05:12:31;;;;;;;;;15.30;11.50;;;;;1.89;59.26;101471.36;478198;114;379827;-77
2020/12/28 05:13:35;;;;;;;;;27.30;21.10;;;;;1.90;59.26;101460.84;477598;114;383842;-76
2020/12/28 05:14:39;;;;;;;;;27.20;23.50;;;;;1.85;58.91;101467.95;480083;113;382002;-78